Time;durP1;ratioP1;P1;durP2;ratioP2;P2;SDS_P1;SDS_P2;PMS_P1;PMS_P2;Temp;Humidity;BMP_temperature;BMP_pressure;BME280_temperature;BME280_humidity;BME280_pressure;Samples;Min_cycle;Max_cycle;Signal;HPM_P1;HPM_P2
2022/08/21 08:16:57;;;;;;;;;;;;;;;;;;;;;
2022/08/21 08:19:52;;;;;;;11.75;4.88;;;;;;;18.53;79.76;101525.34;6427612;23;20088;-76
2022/08/21 08:26:33;;;;;;;;;;;;;;;;;;;;;
2022/08/21 08:29:05;;;;;;;9.90;4.68;;;;;;;18.73;78.31;101523.91;6512232;22;20079;-77
2022/08/21 08:31:48;;;;;;;9.68;4.22;;;;;;;18.80;78.47;101517.84;6544502;22;20038;-76
2022/08/21 08:34:32;;;;;;;15.98;4.68;;;;;;;18.87;78.31;101502.16;6544615;22;20034;-75
2022/08/21 08:37:04;;;;;;;7.55;4.57;;;;;;;18.98;78.46;101522.31;6544119;22;20311;-75
2022/08/21 08:39:42;;;;;;;7.35;4.05;;;;;;;19.01;77.37;101518.00;6544547;22;20035;-76
2022/08/21 08:42:30;;;;;;;15.10;4.45;;;;;;;19.18;77.64;101508.75;6544173;22;20004;-75
2022/08/21 08:45:23;;;;;;;12.88;4.63;;;;;;;19.31;76.90;101505.75;6544921;22;20079;-78
2022/08/21 08:51:46;;;;;;;10.00;4.00;;;;;;;19.63;75.18;101502.69;6514103;22;20018;-75
2022/08/21 08:55:09;;;;;;;8.32;4.35;;;;;;;19.64;73.65;101501.56;6545206;22;20004;-77
2022/08/21 09:00:41;;;;;;;7.72;3.08;;;;;;;19.62;73.36;101496.25;6544379;22;20430;-76
2022/08/21 09:03:12;;;;;;;10.25;3.08;;;;;;;19.61;72.43;101490.94;6543367;22;20008;-76
2022/08/21 09:10:31;;;;;;;10.52;3.30;;;;;;;19.94;71.87;101482.75;6530034;22;20008;-77
2022/08/21 09:17:16;;;;;;;6.78;3.03;;;;;;;20.03;71.06;101477.09;6407444;23;20021;-76
2022/08/21 09:20:21;;;;;;;8.60;3.35;;;;;;;20.08;70.13;101480.53;6404788;23;20053;-77
2022/08/21 09:23:49;;;;;;;11.20;2.78;;;;;;;20.08;69.82;101480.53;6408261;23;20009;-76
2022/08/21 09:27:08;;;;;;;6.70;2.83;;;;;;;19.94;70.28;101488.38;6316439;23;20011;-76
2022/08/21 09:30:02;;;;;;;8.27;2.60;;;;;;;19.84;71.01;101486.78;6315051;23;20354;-76
2022/08/21 09:33:06;;;;;;;12.07;3.25;;;;;;;19.81;70.38;101490.25;6536247;22;20094;-77
2022/08/21 09:35:50;;;;;;;8.95;2.92;;;;;;;19.77;68.96;101476.03;6531502;22;20004;-76
2022/08/21 09:38:34;;;;;;;7.45;2.33;;;;;;;19.79;68.56;101498.22;6537722;22;20003;-77
2022/08/21 09:41:10;;;;;;;9.05;2.78;;;;;;;19.89;66.94;101491.38;6537484;22;19999;-77
2022/08/21 09:43:52;;;;;;;5.07;2.08;;;;;;;20.12;66.37;101494.75;6536727;22;20011;-75
2022/08/21 09:46:27;;;;;;;6.00;2.45;;;;;;;20.19;65.61;101489.41;6535829;22;20027;-77
2022/08/21 09:49:01;;;;;;;14.23;10.13;;;;;;;20.34;66.40;101494.47;6537349;22;20007;-76
2022/08/21 09:51:35;;;;;;;8.05;4.15;;;;;;;20.40;65.69;101490.31;6535879;22;20008;-77
2022/08/21 09:54:07;;;;;;;5.75;2.65;;;;;;;20.49;65.47;101486.59;6534678;22;20004;-77
2022/08/21 10:00:33;;;;;;;5.35;2.03;;;;;;;20.73;63.18;101481.13;6536891;22;20020;-75
2022/08/21 10:03:19;;;;;;;5.45;2.60;;;;;;;20.84;63.96;101488.03;6537261;22;20034;-74
2022/08/21 10:05:56;;;;;;;4.47;2.03;;;;;;;20.91;64.40;101481.00;6537487;22;20083;-77
2022/08/21 10:08:28;;;;;;;5.82;3.45;;;;;;;20.89;62.68;101477.69;6534649;22;20035;-78
2022/08/21 10:11:11;;;;;;;4.70;2.28;;;;;;;20.76;61.12;101463.56;6535886;22;20011;-77
2022/08/21 10:13:48;;;;;;;6.57;1.90;;;;;;;20.65;60.96;101473.56;6533332;22;20094;-78
2022/08/21 10:16:37;;;;;;;6.78;2.90;;;;;;;20.79;62.35;101481.78;6537813;22;20031;-79
2022/08/21 10:19:23;;;;;;;5.53;2.80;;;;;;;20.83;62.62;101475.06;6537628;22;20012;-79
2022/08/21 10:22:21;;;;;;;5.22;2.40;;;;;;;20.89;62.74;101477.69;6535316;22;20014;-78
2022/08/21 10:25:23;;;;;;;8.95;3.05;;;;;;;20.91;62.41;101483.81;6536057;22;20008;-78
2022/08/21 10:28:12;;;;;;;6.55;2.75;;;;;;;20.91;62.97;101478.16;6535608;22;20396;-79
2022/08/21 10:30:53;;;;;;;5.32;2.90;;;;;;;21.03;61.83;101470.59;6535948;22;20419;-78
2022/08/21 10:34:00;;;;;;;6.03;2.70;;;;;;;20.99;59.47;101478.13;6537645;22;20024;-79
2022/08/21 10:36:39;;;;;;;7.57;2.92;;;;;;;21.03;60.52;101478.25;6536222;22;20029;-78
2022/08/21 10:39:17;;;;;;;6.80;2.47;;;;;;;21.04;60.04;101474.25;6537372;22;20358;-78
2022/08/21 10:42:09;;;;;;;4.65;2.42;;;;;;;21.02;61.16;101474.59;6536293;22;20004;-78
2022/08/21 10:45:08;;;;;;;10.75;3.40;;;;;;;20.97;60.63;101480.44;6537270;22;20053;-81
2022/08/21 10:47:48;;;;;;;8.05;2.90;;;;;;;21.12;60.58;101484.63;6536904;22;20073;-79
2022/08/21 10:50:50;;;;;;;8.18;3.42;;;;;;;21.23;59.42;101482.19;6537114;22;20411;-80
2022/08/21 10:53:46;;;;;;;4.32;2.83;;;;;;;21.11;59.12;101474.50;6500139;22;20078;-80
2022/08/21 10:56:28;;;;;;;6.90;3.67;;;;;;;21.06;59.31;101469.94;6535976;22;20424;-80
2022/08/21 10:59:06;;;;;;;7.90;3.33;;;;;;;21.18;59.80;101469.13;6537189;22;20402;-79
2022/08/21 11:01:46;;;;;;;8.02;3.40;;;;;;;21.32;59.78;101470.81;6536569;22;20004;-80
2022/08/21 11:04:34;;;;;;;4.25;2.58;;;;;;;21.31;59.08;101472.00;6536147;22;20023;-79
2022/08/21 11:07:26;;;;;;;4.60;2.67;;;;;;;21.27;59.13;101472.69;6536371;22;20003;-79
2022/08/21 11:10:05;;;;;;;10.43;3.33;;;;;;;21.29;58.53;101472.34;6535284;22;20000;-79
2022/08/21 11:12:54;;;;;;;7.82;2.92;;;;;;;21.41;59.71;101474.41;6535924;22;20380;-80
2022/08/21 11:15:35;;;;;;;5.38;3.03;;;;;;;21.57;59.01;101475.38;6536036;22;20327;-80
2022/08/21 11:18:22;;;;;;;7.40;3.17;;;;;;;21.63;58.20;101474.00;6535593;22;20000;-79
2022/08/21 11:21:37;;;;;;;8.88;3.75;;;;;;;21.63;58.38;101471.19;6536590;22;20082;-80
2022/08/21 11:24:30;;;;;;;6.50;3.03;;;;;;;21.69;57.18;101469.75;6535657;22;20455;-79
2022/08/21 11:27:22;;;;;;;27.13;24.13;;;;;;;21.76;57.06;101474.84;6536677;22;20428;-80
2022/08/21 11:29:56;;;;;;;9.95;4.18;;;;;;;21.79;55.85;101467.66;6537066;22;20316;-80
2022/08/21 11:32:43;;;;;;;4.63;2.53;;;;;;;21.94;56.07;101464.16;6535381;22;20000;-80
2022/08/21 11:35:32;;;;;;;8.63;3.28;;;;;;;22.03;55.10;101447.91;6536949;22;20242;-80
2022/08/21 11:38:18;;;;;;;6.57;3.00;;;;;;;22.27;54.11;101446.28;6534932;22;20058;-79
2022/08/21 11:41:10;;;;;;;7.38;2.60;;;;;;;22.41;53.26;101443.88;6535776;22;20003;-79
2022/08/21 11:43:48;;;;;;;6.97;3.33;;;;;;;22.34;52.75;101453.00;6536462;22;20062;-79
2022/08/21 11:47:02;;;;;;;4.38;2.17;;;;;;;22.27;53.39;101454.75;6535377;22;20030;-80
2022/08/21 11:49:52;;;;;;;6.57;2.83;;;;;;;22.19;52.62;101466.97;6536790;22;20007;-80
2022/08/21 11:52:33;;;;;;;6.63;2.33;;;;;;;22.30;52.54;101459.69;6535414;22;20330;-80
2022/08/21 11:55:14;;;;;;;5.97;2.60;;;;;;;22.48;51.25;101475.22;6536235;22;20072;-75
2022/08/21 11:57:58;;;;;;;6.50;2.92;;;;;;;22.28;49.76;101464.88;6536116;22;20007;-80
2022/08/21 12:00:38;;;;;;;6.60;2.65;;;;;;;22.22;50.83;101471.97;6534788;22;20042;-80
2022/08/21 12:03:14;;;;;;;8.07;2.47;;;;;;;22.20;50.28;101479.94;6535534;22;20015;-80
2022/08/21 12:05:54;;;;;;;3.63;2.10;;;;;;;22.34;50.12;101474.75;6536794;22;20319;-79
2022/08/21 12:08:27;;;;;;;11.95;7.72;;;;;;;22.34;50.57;101469.94;6535871;22;20023;-79
2022/08/21 12:11:07;;;;;;;11.30;4.85;;;;;;;22.35;51.22;101470.75;6536035;22;20035;-78
2022/08/21 12:14:18;;;;;;;5.85;2.50;;;;;;;22.31;51.33;101470.63;6533633;22;20139;-78
2022/08/21 12:16:49;;;;;;;6.47;2.80;;;;;;;22.17;50.96;101469.34;6438239;23;20016;-78
2022/08/21 12:19:20;;;;;;;7.35;2.72;;;;;;;22.13;51.58;101475.66;6439279;23;20005;-77
2022/08/21 12:22:14;;;;;;;5.17;2.53;;;;;;;22.30;52.06;101471.00;6492157;22;20086;-80
2022/08/21 12:24:51;;;;;;;6.30;2.47;;;;;;;22.52;51.31;101466.81;6536515;22;20674;-80
2022/08/21 12:27:52;;;;;;;5.57;2.53;;;;;;;22.92;50.53;101466.84;6535129;22;20007;-78
2022/08/21 12:30:26;;;;;;;5.72;2.90;;;;;;;23.00;49.59;101456.59;6536265;22;20004;-79
2022/08/21 12:33:01;;;;;;;6.22;3.58;;;;;;;23.13;49.59;101461.00;6535593;22;20027;-81
2022/08/21 12:35:38;;;;;;;7.68;2.90;;;;;;;23.23;49.42;101462.50;6535883;22;20026;-80
2022/08/21 12:38:19;;;;;;;5.53;2.75;;;;;;;23.44;49.18;101465.09;6538499;22;19999;-78
2022/08/21 12:41:04;;;;;;;5.00;3.00;;;;;;;23.56;49.37;101461.38;6540603;22;20010;-79
2022/08/21 12:43:41;;;;;;;7.10;3.05;;;;;;;23.27;49.54;101460.59;6537662;22;20008;-78
2022/08/21 12:46:22;;;;;;;5.97;3.15;;;;;;;23.18;50.17;101460.75;6536455;22;20011;-77
2022/08/21 12:49:21;;;;;;;9.32;3.30;;;;;;;23.42;48.86;101465.47;6537305;22;20031;-78
2022/08/21 12:52:08;;;;;;;7.05;3.42;;;;;;;23.16;49.89;101459.44;6538072;22;20008;-81
2022/08/21 12:54:42;;;;;;;7.43;3.00;;;;;;;23.47;49.70;101460.69;6536227;22;20004;-78
2022/08/21 12:57:20;;;;;;;7.75;3.40;;;;;;;23.40;50.07;101467.81;6535781;22;20008;-78
2022/08/21 12:59:58;;;;;;;5.70;2.80;;;;;;;23.33;50.41;101464.78;6537857;22;20004;-80
2022/08/21 13:02:39;;;;;;;9.52;3.45;;;;;;;23.12;50.36;101458.56;6542541;22;20008;-78
2022/08/21 13:05:16;;;;;;;6.63;2.13;;;;;;;23.27;49.47;101454.13;6538679;22;20031;-79
2022/08/21 13:07:49;;;;;;;3.67;2.28;;;;;;;23.69;47.70;101454.44;6538334;22;19999;-77
2022/08/21 13:10:25;;;;;;;11.35;2.92;;;;;;;24.15;47.74;101462.47;6536842;22;20011;-74
2022/08/21 13:13:01;;;;;;;7.68;2.38;;;;;;;24.23;44.73;101465.09;6534981;22;20012;-74
2022/08/21 13:15:35;;;;;;;6.20;2.70;;;;;;;24.11;45.00;101455.91;6536736;22;20010;-78
2022/08/21 13:18:06;;;;;;;6.25;2.30;;;;;;;23.89;45.47;101468.72;6536430;22;20007;-77
2022/08/21 13:20:41;;;;;;;7.00;2.33;;;;;;;23.55;45.73;101468.22;6535677;22;20007;-77
2022/08/21 13:23:29;;;;;;;4.90;2.10;;;;;;;23.40;46.59;101459.34;6538032;22;20401;-77
2022/08/21 13:26:02;;;;;;;19.60;17.17;;;;;;;23.52;47.40;101458.44;6537018;22;20008;-77
2022/08/21 13:28:37;;;;;;;6.32;3.15;;;;;;;24.08;45.68;101454.63;6537141;22;19999;-76
2022/08/21 13:31:10;;;;;;;5.28;2.45;;;;;;;24.33;43.15;101462.91;6535251;22;20008;-77
2022/08/21 13:33:41;;;;;;;5.40;2.45;;;;;;;24.55;42.53;101459.41;6536373;22;20087;-78
2022/08/21 13:36:29;;;;;;;9.77;3.38;;;;;;;24.90;43.34;101450.00;6537314;22;20000;-79
2022/08/21 13:39:04;;;;;;;6.68;2.55;;;;;;;24.85;42.90;101453.16;6536941;22;20026;-78
2022/08/21 13:41:40;;;;;;;5.95;2.70;;;;;;;25.03;42.24;101448.69;6536838;22;20004;-77
2022/08/21 13:44:26;;;;;;;6.05;2.30;;;;;;;25.17;42.02;101451.00;6537540;22;20011;-78
2022/08/21 13:47:00;;;;;;;9.55;2.85;;;;;;;24.91;42.36;101451.66;6536106;22;20010;-78
2022/08/21 13:49:38;;;;;;;7.40;2.30;;;;;;;24.78;43.43;101459.50;6537910;22;20023;-82
2022/08/21 13:52:22;;;;;;;5.00;2.20;;;;;;;24.39;43.41;101455.75;6537174;22;20355;-80
2022/08/21 13:55:01;;;;;;;8.17;3.23;;;;;;;24.03;44.21;101452.06;6537048;22;20015;-81
2022/08/21 13:57:34;;;;;;;7.25;2.47;;;;;;;23.81;44.99;101447.91;6536712;22;20022;-79
2022/08/21 14:00:25;;;;;;;7.72;2.80;;;;;;;24.05;45.38;101458.19;6535644;22;20003;-79
2022/08/21 14:03:04;;;;;;;5.95;2.53;;;;;;;24.04;45.20;101453.72;6536581;22;20102;-74
2022/08/21 14:05:44;;;;;;;7.20;3.33;;;;;;;23.93;45.51;101455.44;6537184;22;20082;-74
2022/08/21 14:08:37;;;;;;;8.07;2.92;;;;;;;23.82;46.07;101446.69;6536844;22;20000;-78
2022/08/21 14:11:13;;;;;;;6.82;2.60;;;;;;;23.74;46.81;101447.72;6536558;22;20027;-77
2022/08/21 14:14:14;;;;;;;7.72;3.63;;;;;;;23.60;46.97;101451.78;6535457;22;20098;-78
2022/08/21 14:16:59;;;;;;;5.47;2.55;;;;;;;23.78;47.57;101445.81;6536849;22;20419;-79
2022/08/21 14:19:41;;;;;;;7.88;3.28;;;;;;;23.76;47.29;101443.31;6537191;22;20008;-79
2022/08/21 14:22:44;;;;;;;7.00;2.70;;;;;;;23.86;47.34;101442.78;6536000;22;20014;-79
2022/08/21 14:25:18;;;;;;;10.23;2.78;;;;;;;23.86;46.78;101441.97;6537146;22;20324;-79
2022/08/21 14:28:09;;;;;;;6.90;3.50;;;;;;;23.80;46.94;101434.91;6535301;22;20003;-79
2022/08/21 14:30:42;;;;;;;7.40;2.50;;;;;;;23.81;47.53;101431.72;6536916;22;20008;-80
2022/08/21 14:33:25;;;;;;;7.45;3.00;;;;;;;23.64;48.11;101435.69;6536449;22;20000;-79
2022/08/21 14:35:58;;;;;;;6.68;2.80;;;;;;;23.68;48.32;101441.47;6535473;22;20011;-79
2022/08/21 14:38:35;;;;;;;7.95;2.80;;;;;;;23.42;47.64;101444.84;6536881;22;20008;-79
2022/08/21 14:41:22;;;;;;;8.00;3.17;;;;;;;23.56;48.26;101439.53;6536245;22;20004;-79
2022/08/21 14:43:55;;;;;;;8.48;4.07;;;;;;;23.47;47.63;101432.41;6536769;22;20006;-78
2022/08/21 14:46:29;;;;;;;7.72;2.88;;;;;;;23.59;47.94;101423.84;6536803;22;20030;-79
2022/08/21 14:49:04;;;;;;;6.35;2.60;;;;;;;23.81;48.17;101433.75;6535793;22;20003;-78
2022/08/21 14:51:36;;;;;;;10.50;3.15;;;;;;;23.71;48.40;101425.75;6537622;22;20438;-80
2022/08/21 14:54:07;;;;;;;9.15;3.45;;;;;;;23.83;48.36;101428.53;6537064;22;20003;-81
2022/08/21 14:56:39;;;;;;;10.20;3.20;;;;;;;23.91;47.70;101435.19;6535754;22;20427;-74
2022/08/21 14:59:10;;;;;;;4.97;2.45;;;;;;;23.82;47.79;101436.19;6537917;22;20042;-81
2022/08/21 15:01:44;;;;;;;10.98;3.03;;;;;;;23.79;48.07;101436.09;6539395;22;20499;-81
2022/08/21 15:04:19;;;;;;;8.80;2.97;;;;;;;23.73;48.24;101441.22;6540657;22;20045;-81
2022/08/21 15:06:50;;;;;;;8.10;4.30;;;;;;;23.78;48.43;101440.94;6542420;22;20003;-80
2022/08/21 15:09:22;;;;;;;10.18;2.83;;;;;;;23.66;48.39;101436.16;6541065;22;20432;-80
2022/08/21 15:11:57;;;;;;;9.95;3.47;;;;;;;23.53;48.53;101445.13;6536835;22;20011;-80
2022/08/21 15:14:32;;;;;;;6.75;3.10;;;;;;;23.51;48.13;101444.66;6536859;22;20049;-80
2022/08/21 15:17:05;;;;;;;;;;;;;;;23.61;48.49;101446.94;6535799;22;20004;-79
2022/08/21 15:19:39;;;;;;;7.22;3.28;;;;;;;23.43;48.91;101440.81;6536893;22;20290;-79
2022/08/21 15:22:10;;;;;;;5.72;2.97;;;;;;;23.48;49.03;101434.06;6537035;22;20064;-79
2022/08/21 15:24:42;;;;;;;7.55;3.72;;;;;;;23.48;48.44;101429.22;6535813;22;20011;-81
2022/08/21 15:27:16;;;;;;;6.22;2.90;;;;;;;23.55;48.84;101434.25;6536726;22;20027;-79
2022/08/21 15:29:48;;;;;;;13.03;7.83;;;;;;;23.64;49.12;101429.22;6536000;22;20070;-77
2022/08/21 15:32:29;;;;;;;9.20;4.30;;;;;;;23.73;49.38;101431.91;6535523;22;20416;-77
2022/08/21 15:35:03;;;;;;;8.82;2.78;;;;;;;23.58;48.16;101430.69;6536787;22;20388;-81
2022/08/21 15:37:36;;;;;;;7.00;2.55;;;;;;;23.63;48.18;101433.25;6536114;22;20348;-80
2022/08/21 15:40:08;;;;;;;7.78;2.90;;;;;;;23.56;47.57;101431.03;6542684;22;20008;-80
2022/08/21 15:42:40;;;;;;;8.40;3.05;;;;;;;23.65;47.70;101431.69;6545712;22;20006;-80
2022/08/21 15:45:13;;;;;;;6.40;2.20;;;;;;;23.63;47.59;101433.25;6543976;22;20023;-80
2022/08/21 15:47:45;;;;;;;8.00;3.28;;;;;;;23.47;47.82;101438.91;6546534;22;20028;-80
2022/08/21 15:50:17;;;;;;;5.22;2.53;;;;;;;23.51;47.94;101439.00;6543164;22;20004;-80
2022/08/21 15:52:49;;;;;;;6.88;2.47;;;;;;;23.50;47.27;101437.34;6536236;22;20008;-79
2022/08/21 15:55:20;;;;;;;6.90;2.70;;;;;;;23.55;47.46;101437.91;6537362;22;20004;-80
2022/08/21 15:57:54;;;;;;;8.18;2.40;;;;;;;23.70;47.39;101432.59;6537055;22;20007;-78
2022/08/21 16:00:32;;;;;;;9.15;2.40;;;;;;;23.63;47.01;101438.91;6536101;22;20007;-78
2022/08/21 16:03:06;;;;;;;7.68;2.63;;;;;;;23.70;46.43;101432.59;6536480;22;20073;-79
2022/08/21 16:05:37;;;;;;;8.88;2.30;;;;;;;23.78;46.67;101440.94;6534301;22;20838;-79
2022/08/21 16:08:10;;;;;;;7.75;2.72;;;;;;;23.67;46.09;101436.97;6537023;22;20033;-79
2022/08/21 16:10:44;;;;;;;7.03;2.50;;;;;;;23.71;47.04;101435.06;6536542;22;20011;-79
2022/08/21 16:13:23;;;;;;;5.80;2.27;;;;;;;23.68;47.11;101435.81;6534530;22;20427;-79
2022/08/21 16:15:54;;;;;;;4.97;2.20;;;;;;;23.71;47.56;101432.25;6535749;22;20054;-78
2022/08/21 16:18:26;;;;;;;5.32;3.03;;;;;;;23.66;47.60;101432.50;6536380;22;19999;-79
2022/08/21 16:20:57;;;;;;;7.25;2.88;;;;;;;23.59;47.31;101433.13;6535571;22;20011;-79
2022/08/21 16:23:29;;;;;;;6.93;3.40;;;;;;;23.58;47.92;101439.19;6538589;22;20074;-80
2022/08/21 16:26:05;;;;;;;4.93;2.47;;;;;;;23.55;47.71;101437.91;6541373;22;20074;-79
2022/08/21 16:28:40;;;;;;;6.38;2.47;;;;;;;23.55;47.57;101437.09;6541827;22;20396;-77
2022/08/21 16:31:12;;;;;;;6.07;3.40;;;;;;;23.59;47.80;101426.66;6540385;22;20011;-79
2022/08/21 16:36:28;;;;;;;4.88;2.42;;;;;;;23.54;47.41;101418.44;6494602;22;20024;-79
2022/08/21 16:39:02;;;;;;;10.43;3.22;;;;;;;23.51;47.99;101430.50;6506739;23;20004;-79
2022/08/21 16:41:35;;;;;;;6.10;2.28;;;;;;;23.47;48.06;101426.75;6506038;23;20010;-79
2022/08/21 16:44:06;;;;;;;6.93;3.50;;;;;;;23.53;48.19;101425.31;6506261;23;20000;-78
2022/08/21 16:46:40;;;;;;;3.85;2.00;;;;;;;23.49;48.18;101424.38;6509172;23;20010;-79
2022/08/21 16:49:13;;;;;;;6.40;3.08;;;;;;;23.36;47.99;101424.44;6509923;23;20491;-78
2022/08/21 16:51:44;;;;;;;4.72;2.50;;;;;;;23.35;47.77;101425.63;6509935;23;20019;-78
2022/08/21 16:54:16;;;;;;;4.85;3.10;;;;;;;23.30;48.21;101425.91;6509803;23;20000;-79
2022/08/21 16:56:47;;;;;;;7.63;2.75;;;;;;;23.30;48.01;101427.91;6505721;23;20004;-79
2022/08/21 16:59:18;;;;;;;6.85;2.28;;;;;;;23.23;47.85;101425.72;6506638;23;20084;-78
2022/08/21 17:01:51;;;;;;;4.80;2.50;;;;;;;23.25;48.33;101431.03;6505257;23;20510;-79
2022/08/21 17:04:24;;;;;;;5.88;3.38;;;;;;;23.18;48.25;101428.81;6506330;23;20000;-78
2022/08/21 17:06:56;;;;;;;8.95;3.50;;;;;;;23.20;48.42;101427.25;6506035;23;20000;-80
2022/08/21 17:09:27;;;;;;;6.00;2.00;;;;;;;23.08;48.61;101430.13;6504927;23;20011;-79
2022/08/21 17:11:58;;;;;;;7.57;2.65;;;;;;;23.04;49.10;101434.06;6505165;23;20022;-79
2022/08/21 17:14:30;;;;;;;7.50;2.60;;;;;;;23.02;49.50;101434.44;6505553;23;20004;-80
2022/08/21 17:17:03;;;;;;;4.15;2.28;;;;;;;22.92;49.75;101437.75;6504390;23;20401;-78
2022/08/21 17:19:35;;;;;;;7.40;2.65;;;;;;;22.82;50.07;101432.59;6506240;23;20019;-78
2022/08/21 17:22:07;;;;;;;8.07;2.47;;;;;;;22.67;50.69;101431.34;6507810;23;20008;-78
2022/08/21 17:24:41;;;;;;;10.10;4.00;;;;;;;22.79;51.15;101439.78;6505511;23;20036;-78
2022/08/21 17:27:12;;;;;;;6.30;3.05;;;;;;;22.70;51.15;101436.28;6506317;23;20416;-79
2022/08/21 17:29:43;;;;;;;7.40;2.95;;;;;;;22.74;51.31;101440.03;6505049;23;20079;-78
2022/08/21 17:32:17;;;;;;;7.53;2.67;;;;;;;22.63;51.06;101438.91;6505557;23;20016;-79
